Redwood City, CA (94065)

3:49 PM PST on February 13, 2016 (GMT -0800)
Neighborhood 4 | | Change Station
CLOSE
Current Station
Personal Weather Station
Location: Foster City, CA
Elevation: 7 ft
Nearby Weather Stations

Elev 7 ft 37.55 °N, 122.26 °W | Updated 14 seconds ago

Partly Cloudy
Partly Cloudy
67.5 °F
Feels Like 67.5 °F
N
6.0
Wind Variable Wind from SW
Gusts 6.0 mph

Today
High -- | Low -- °F
--% Chance of Precip.
Yesterday
High -- | Low -- °F
Precip. -- in
Pressure 30.22 in
Visibility 10.0 miles
Clouds Few 20000 ft
Dew Point 53 °F
Humidity 59%
Rainfall 0.00 in
Snow Depth Not available.
7:01 AM 5:45 PM
Waxing Crescent, 35% visible
METAR KSQL 132247Z 31006KT 10SM FEW200 20/10 A3022
Pressure 30.22 in
Visibility 10.0 miles
Clouds Few 20000 ft
Dew Point 53 °F
Humidity 59%
Rainfall 0.00 in
Snow Depth Not available.
7:01 AM 5:45 PM
Waxing Crescent, 35% visible
METAR KSQL 132247Z 31006KT 10SM FEW200 20/10 A3022

10-Day Weather Forecast

Almanac

Astronomy

Feb. 13, 2016 Rise Set
Actual Time
Civil Twilight
Nautical Twilight
Astronomical Twilight
Moon
Length of Visible Light
Length of Day
Tomorrow will be .
, % of the Moon is Illuminated

Today's Extremes

State Highs State Lows

Community

WunderPhotos

Upload Photos

1,892,705 photos uploaded!

WunderBlog® & News

Nearby

Air Quality

  Air Quality AQ Index Pollutant
Not available.

Snow Depth

Station Depth Elevation

Earthquake Activity

City Distance Mag. Time & Date
Minimum magnitude displayed is 2.5.

Coastal Water Temperatures

Place Temperature

Stations

Nearby Weather Stations

Station Location Temp. Windchill Dew Point Humidity Wind Precip. Elev Updated Type
                   

Watches & Warnings

There are currently no watches in effect.